Time;durP1;ratioP1;P1;durP2;ratioP2;P2;SDS_P1;SDS_P2;PMS_P1;PMS_P2;Temp;Humidity;BMP_temperature;BMP_pressure;BME280_temperature;BME280_humidity;BME280_pressure;Samples;Min_cycle;Max_cycle;Signal;HPM_P1;HPM_P2
2021/09/23 00:00:51;;;;;;;1.90;0.90;;;14.20;99.90;;;;;;5092838;28;20424;-66
2021/09/23 00:03:43;;;;;;;1.45;0.90;;;14.20;99.90;;;;;;5093675;28;20417;-65
2021/09/23 00:06:15;;;;;;;1.88;0.98;;;14.10;99.90;;;;;;5092885;28;20422;-65
2021/09/23 00:08:46;;;;;;;1.75;0.80;;;14.10;99.90;;;;;;5093587;28;20810;-65
2021/09/23 00:11:13;;;;;;;1.50;0.80;;;14.10;99.90;;;;;;5092216;28;20418;-65
2021/09/23 00:13:45;;;;;;;1.67;0.80;;;14.20;99.90;;;;;;5092814;28;20437;-65
2021/09/23 00:16:15;;;;;;;1.13;0.88;;;14.20;99.90;;;;;;5094381;28;20524;-65
2021/09/23 00:18:43;;;;;;;2.20;0.90;;;14.30;99.90;;;;;;5094199;28;20429;-65
2021/09/23 00:21:14;;;;;;;1.50;0.90;;;14.10;99.90;;;;;;5094872;28;20431;-65
2021/09/23 00:23:43;;;;;;;2.20;1.00;;;14.10;99.90;;;;;;5094045;28;20422;-63
2021/09/23 00:26:11;;;;;;;1.80;1.13;;;14.00;99.90;;;;;;5093120;28;20421;-65
2021/09/23 00:28:38;;;;;;;1.40;1.10;;;13.80;99.90;;;;;;5093567;28;20425;-64
2021/09/23 00:31:06;;;;;;;1.60;0.90;;;13.60;99.90;;;;;;5093915;28;20451;-64
2021/09/23 00:33:33;;;;;;;2.13;1.05;;;13.60;99.90;;;;;;5093747;28;20490;-64
2021/09/23 00:36:01;;;;;;;1.23;0.90;;;13.50;99.90;;;;;;5093823;28;20808;-65
2021/09/23 00:38:28;;;;;;;2.85;0.98;;;13.50;99.90;;;;;;5094189;28;20430;-64
2021/09/23 00:40:59;;;;;;;1.40;0.93;;;13.40;99.90;;;;;;5094218;28;20723;-64
2021/09/23 00:43:28;;;;;;;1.30;1.00;;;13.30;99.90;;;;;;5093839;28;20464;-64
2021/09/23 00:45:59;;;;;;;2.25;1.00;;;13.40;99.90;;;;;;5093681;28;20870;-65
2021/09/23 00:48:29;;;;;;;2.10;1.20;;;13.30;99.90;;;;;;5093729;28;20521;-64
2021/09/23 00:50:58;;;;;;;1.60;1.00;;;13.30;99.90;;;;;;5094440;28;20482;-64
2021/09/23 00:53:28;;;;;;;2.03;1.00;;;13.20;99.90;;;;;;5094495;28;20737;-64
2021/09/23 00:55:58;;;;;;;2.83;0.90;;;13.00;99.90;;;;;;5094304;28;20839;-64
2021/09/23 00:58:26;;;;;;;1.20;0.90;;;12.90;99.90;;;;;;5093632;28;20486;-65
2021/09/23 01:00:58;;;;;;;1.20;0.90;;;13.00;99.90;;;;;;5093538;28;20429;-63
2021/09/23 01:03:25;;;;;;;1.40;0.90;;;13.10;99.90;;;;;;5092012;28;20418;-64
2021/09/23 01:05:52;;;;;;;2.00;1.10;;;13.10;99.90;;;;;;5092190;28;20418;-64
2021/09/23 01:08:22;;;;;;;1.47;1.00;;;13.10;99.90;;;;;;5092930;28;20483;-63
2021/09/23 01:10:49;;;;;;;1.40;0.90;;;13.10;99.90;;;;;;5095302;28;20841;-63
2021/09/23 01:13:18;;;;;;;1.40;0.80;;;13.20;99.90;;;;;;5096437;28;20805;-63
2021/09/23 01:15:45;;;;;;;1.50;1.00;;;13.30;99.90;;;;;;5095829;28;20648;-62
2021/09/23 01:18:16;;;;;;;1.90;1.00;;;13.30;99.90;;;;;;5096338;28;20422;-63
2021/09/23 01:20:44;;;;;;;2.30;0.90;;;13.50;99.90;;;;;;5095861;28;20425;-63
2021/09/23 01:23:14;;;;;;;1.90;1.00;;;13.60;99.90;;;;;;5095232;28;20880;-64
2021/09/23 01:25:44;;;;;;;1.70;0.90;;;13.70;99.90;;;;;;5094992;28;20467;-64
2021/09/23 01:28:12;;;;;;;2.00;0.90;;;13.80;99.90;;;;;;5094084;28;20441;-64
2021/09/23 01:30:40;;;;;;;1.30;0.90;;;14.00;99.90;;;;;;5095089;28;20456;-64
2021/09/23 01:33:07;;;;;;;1.20;0.90;;;14.10;99.90;;;;;;5095607;28;20852;-64
2021/09/23 01:35:35;;;;;;;1.70;0.90;;;14.00;99.90;;;;;;5095488;28;20410;-64
2021/09/23 01:38:02;;;;;;;1.20;0.80;;;14.10;99.90;;;;;;5094721;28;20433;-64
2021/09/23 01:40:31;;;;;;;1.40;0.90;;;14.10;99.90;;;;;;5094699;28;20779;-64
2021/09/23 01:43:00;;;;;;;1.77;0.80;;;14.10;99.90;;;;;;5093875;28;20475;-64
2021/09/23 01:45:27;;;;;;;1.63;0.90;;;14.10;99.90;;;;;;5093892;28;20421;-64
2021/09/23 01:47:55;;;;;;;1.30;0.90;;;14.20;99.90;;;;;;5093937;28;20430;-64
2021/09/23 01:50:24;;;;;;;1.20;0.90;;;14.20;99.90;;;;;;5094123;28;20646;-64
2021/09/23 01:52:54;;;;;;;2.00;0.90;;;14.20;99.90;;;;;;5094955;28;20430;-64
2021/09/23 01:55:24;;;;;;;1.30;0.90;;;14.20;99.90;;;;;;5096033;28;20973;-64
2021/09/23 01:57:53;;;;;;;1.23;0.90;;;14.20;99.90;;;;;;5097157;28;20430;-64
2021/09/23 02:00:20;;;;;;;1.67;0.90;;;14.20;99.90;;;;;;5097344;28;20418;-64
2021/09/23 02:02:49;;;;;;;1.20;0.90;;;14.20;99.90;;;;;;5095494;28;20471;-64
2021/09/23 02:05:17;;;;;;;1.50;0.90;;;14.10;99.90;;;;;;5095793;28;20475;-64
2021/09/23 02:07:44;;;;;;;2.50;1.05;;;14.10;99.90;;;;;;5095459;28;20430;-63
2021/09/23 02:10:13;;;;;;;1.35;0.80;;;14.10;99.90;;;;;;5095678;28;20423;-64
2021/09/23 02:12:40;;;;;;;1.70;0.90;;;14.00;99.90;;;;;;5095083;28;20467;-64
2021/09/23 02:15:10;;;;;;;1.30;1.00;;;14.00;99.90;;;;;;5093958;28;20417;-63
2021/09/23 02:17:38;;;;;;;1.80;0.90;;;14.00;99.90;;;;;;5095200;28;20429;-64
2021/09/23 02:20:07;;;;;;;1.50;0.90;;;13.90;99.90;;;;;;5095370;28;20418;-63
2021/09/23 02:22:35;;;;;;;3.35;0.93;;;13.90;99.90;;;;;;5094745;28;20417;-63
2021/09/23 02:25:02;;;;;;;1.10;0.80;;;13.90;99.90;;;;;;5093857;28;20771;-63
2021/09/23 02:27:31;;;;;;;1.40;0.90;;;13.80;99.90;;;;;;5094230;28;20729;-63
2021/09/23 02:30:00;;;;;;;1.95;0.90;;;13.80;99.90;;;;;;5095019;28;20433;-63
2021/09/23 02:32:29;;;;;;;1.20;0.80;;;13.60;99.90;;;;;;5095307;28;20429;-63
2021/09/23 02:34:59;;;;;;;1.30;0.90;;;13.60;99.90;;;;;;5093935;28;20476;-63
2021/09/23 02:37:27;;;;;;;2.10;0.85;;;13.60;99.90;;;;;;5094511;28;20428;-63
2021/09/23 02:39:56;;;;;;;1.77;0.80;;;13.60;99.90;;;;;;5095046;28;20458;-63
2021/09/23 02:42:23;;;;;;;2.20;0.80;;;13.60;99.90;;;;;;5095921;28;20481;-63
2021/09/23 02:44:51;;;;;;;1.30;0.90;;;13.60;99.90;;;;;;5095276;28;20431;-63
2021/09/23 02:47:18;;;;;;;1.25;0.85;;;13.50;99.90;;;;;;5094486;28;20763;-63
2021/09/23 02:49:47;;;;;;;1.40;0.90;;;13.50;99.90;;;;;;5095137;28;20810;-63
2021/09/23 02:52:15;;;;;;;1.10;0.90;;;13.50;99.90;;;;;;5095265;28;20841;-63
2021/09/23 02:54:42;;;;;;;1.20;0.80;;;13.40;99.90;;;;;;5095840;28;20429;-63
2021/09/23 02:57:10;;;;;;;1.90;0.85;;;13.40;99.90;;;;;;5095623;28;20426;-64
2021/09/23 02:59:37;;;;;;;1.10;0.80;;;13.30;99.90;;;;;;5095959;28;20418;-63
2021/09/23 03:02:05;;;;;;;1.50;0.80;;;13.20;99.90;;;;;;5094259;28;20473;-63
2021/09/23 03:04:32;;;;;;;1.27;0.90;;;13.20;99.90;;;;;;5095251;28;20418;-63
2021/09/23 03:07:02;;;;;;;1.38;0.90;;;13.20;99.90;;;;;;5096014;28;20533;-63
2021/09/23 03:09:29;;;;;;;1.40;0.90;;;13.20;99.90;;;;;;5095583;28;20512;-63
2021/09/23 03:11:57;;;;;;;1.50;0.90;;;13.20;99.90;;;;;;5095719;28;21006;-63
2021/09/23 03:14:25;;;;;;;1.70;1.00;;;13.20;99.90;;;;;;5094691;28;20430;-63
2021/09/23 03:16:52;;;;;;;2.10;0.98;;;13.30;99.90;;;;;;5094446;28;20447;-63
2021/09/23 03:19:19;;;;;;;1.60;0.90;;;13.30;99.90;;;;;;5094648;28;20471;-63
2021/09/23 03:21:47;;;;;;;1.30;0.90;;;13.30;99.90;;;;;;5094569;28;20426;-63
2021/09/23 03:24:16;;;;;;;1.30;0.90;;;13.40;99.90;;;;;;5093750;28;20414;-63
2021/09/23 03:26:45;;;;;;;1.90;0.90;;;13.30;99.90;;;;;;5094891;28;20418;-63
2021/09/23 03:29:12;;;;;;;1.20;0.90;;;13.30;99.90;;;;;;5094994;28;20578;-63
2021/09/23 03:31:40;;;;;;;2.92;0.90;;;13.20;99.90;;;;;;5094994;28;20479;-62
2021/09/23 03:34:08;;;;;;;1.50;0.90;;;13.20;99.90;;;;;;5094574;28;20434;-63
2021/09/23 03:36:36;;;;;;;2.05;1.00;;;13.30;99.90;;;;;;5095630;28;20455;-62
2021/09/23 03:39:05;;;;;;;1.60;1.08;;;13.30;99.90;;;;;;5095051;28;20721;-63
2021/09/23 03:41:33;;;;;;;2.77;1.00;;;13.20;99.90;;;;;;5093070;28;20479;-62
2021/09/23 03:44:01;;;;;;;1.92;1.00;;;13.10;99.90;;;;;;5093099;28;20717;-63
2021/09/23 03:46:28;;;;;;;1.30;1.00;;;13.00;99.90;;;;;;5091350;28;20418;-63
2021/09/23 03:48:56;;;;;;;1.92;1.00;;;13.00;99.90;;;;;;5090610;28;20445;-63
2021/09/23 03:51:23;;;;;;;1.33;1.00;;;13.10;99.90;;;;;;5091076;28;20483;-63
2021/09/23 03:53:51;;;;;;;2.60;1.10;;;13.10;99.90;;;;;;5091275;28;20468;-62
2021/09/23 03:56:18;;;;;;;1.40;0.90;;;13.10;99.90;;;;;;5092059;28;20479;-63
2021/09/23 03:58:47;;;;;;;2.70;1.00;;;13.10;99.90;;;;;;5092660;28;20475;-63
2021/09/23 04:01:14;;;;;;;1.10;0.93;;;13.10;99.90;;;;;;5093275;28;20474;-63
2021/09/23 04:03:42;;;;;;;2.20;0.90;;;13.20;99.90;;;;;;5095214;28;20837;-63
2021/09/23 04:06:10;;;;;;;1.40;0.90;;;13.20;99.90;;;;;;5094660;28;20422;-63
2021/09/23 04:08:37;;;;;;;2.30;1.00;;;13.30;99.90;;;;;;5094917;28;20779;-63
2021/09/23 04:11:05;;;;;;;2.10;1.10;;;13.30;99.90;;;;;;5093408;28;20538;-64
2021/09/23 04:13:32;;;;;;;1.50;1.00;;;13.20;99.90;;;;;;5093543;28;20434;-63
2021/09/23 04:16:01;;;;;;;1.50;0.95;;;13.20;99.90;;;;;;5092636;28;20791;-63
2021/09/23 04:18:28;;;;;;;1.40;1.00;;;13.20;99.90;;;;;;5093688;28;20430;-63
2021/09/23 04:20:56;;;;;;;2.00;1.00;;;13.10;99.90;;;;;;5094125;28;20418;-63
2021/09/23 04:23:23;;;;;;;2.80;1.00;;;13.00;99.90;;;;;;5094002;28;20422;-63
2021/09/23 04:25:51;;;;;;;1.33;1.00;;;13.00;99.90;;;;;;5094153;28;20476;-63
2021/09/23 04:28:18;;;;;;;1.50;0.93;;;13.10;99.90;;;;;;5092089;28;20507;-63
2021/09/23 04:30:46;;;;;;;2.45;1.02;;;13.10;99.90;;;;;;5092916;28;20475;-63
2021/09/23 04:33:14;;;;;;;1.58;1.00;;;13.10;99.90;;;;;;5092621;28;20472;-63
2021/09/23 04:35:42;;;;;;;1.90;1.00;;;13.10;99.90;;;;;;5092078;28;20422;-63
2021/09/23 04:38:09;;;;;;;2.40;1.10;;;13.00;99.90;;;;;;5092132;28;20425;-63
2021/09/23 04:40:37;;;;;;;2.80;1.15;;;13.00;99.90;;;;;;5093087;28;20844;-63
2021/09/23 04:43:04;;;;;;;3.60;1.20;;;12.90;99.90;;;;;;5092903;28;20422;-63
2021/09/23 04:45:31;;;;;;;2.60;1.13;;;12.70;99.90;;;;;;5096720;28;20418;-63
2021/09/23 04:48:01;;;;;;;2.45;1.30;;;12.70;99.90;;;;;;5096570;28;20429;-63
2021/09/23 04:50:30;;;;;;;2.30;1.40;;;12.40;99.90;;;;;;5094496;28;20853;-63
2021/09/23 04:52:57;;;;;;;2.17;1.50;;;12.00;99.90;;;;;;5093896;28;20434;-62
2021/09/23 04:55:25;;;;;;;3.00;1.70;;;11.70;99.90;;;;;;5094071;28;20455;-64
2021/09/23 04:57:52;;;;;;;4.22;1.60;;;11.50;99.90;;;;;;5093336;28;20425;-62
2021/09/23 05:00:21;;;;;;;2.70;1.40;;;11.40;99.90;;;;;;5093941;28;20418;-62
2021/09/23 05:02:48;;;;;;;3.10;1.60;;;11.40;99.90;;;;;;5094419;28;20459;-63
2021/09/23 05:05:16;;;;;;;4.13;2.15;;;11.50;99.90;;;;;;5096680;28;20698;-63
2021/09/23 05:07:45;;;;;;;2.88;1.60;;;11.50;99.90;;;;;;5096885;28;20483;-63
2021/09/23 05:10:12;;;;;;;3.25;1.40;;;11.60;99.90;;;;;;5095631;28;20422;-63
2021/09/23 05:12:40;;;;;;;3.40;1.70;;;11.50;99.90;;;;;;5095471;28;20428;-63
2021/09/23 05:15:12;;;;;;;2.90;1.50;;;11.40;99.90;;;;;;5092764;28;20712;-63
2021/09/23 05:17:40;;;;;;;2.63;1.38;;;11.50;99.90;;;;;;5095598;28;20429;-64
2021/09/23 05:20:12;;;;;;;3.30;1.67;;;11.60;99.90;;;;;;5095332;28;20414;-62
2021/09/23 05:22:40;;;;;;;3.40;1.50;;;11.70;99.90;;;;;;5095151;28;20426;-62
2021/09/23 05:25:11;;;;;;;2.70;1.60;;;11.50;99.90;;;;;;5094835;28;20414;-62
2021/09/23 05:27:39;;;;;;;3.72;1.52;;;11.50;99.90;;;;;;5092951;28;20470;-63
2021/09/23 05:30:15;;;;;;;2.83;1.63;;;11.50;99.90;;;;;;5093231;28;20487;-65
2021/09/23 05:32:50;;;;;;;2.63;1.50;;;11.40;99.90;;;;;;5089383;28;20425;-65
2021/09/23 05:35:27;;;;;;;1.97;1.40;;;11.30;99.90;;;;;;5092782;28;20479;-65
2021/09/23 05:38:12;;;;;;;2.20;1.40;;;11.30;99.90;;;;;;5086177;28;20433;-63
2021/09/23 05:40:55;;;;;;;2.40;1.30;;;11.30;99.90;;;;;;5093434;28;20425;-65
2021/09/23 05:43:41;;;;;;;;;;;;;;;;;;;;;
2021/09/23 05:49:23;;;;;;;2.60;1.40;;;11.20;99.90;;;;;;5093278;28;20779;-63
2021/09/23 05:51:55;;;;;;;3.47;1.20;;;11.30;99.90;;;;;;5093116;28;20520;-63
2021/09/23 05:54:25;;;;;;;2.65;1.30;;;11.40;99.90;;;;;;5090965;28;20756;-62
2021/09/23 05:57:36;;;;;;;2.57;1.30;;;11.50;99.90;;;;;;5082314;28;20531;-63
2021/09/23 06:00:24;;;;;;;1.70;1.20;;;11.40;99.90;;;;;;5074468;28;20843;-62
2021/09/23 06:03:25;;;;;;;1.75;1.10;;;11.50;99.90;;;;;;5092417;28;20462;-62
2021/09/23 06:05:59;;;;;;;2.20;1.20;;;11.50;99.90;;;;;;5081186;28;20446;-62
2021/09/23 06:08:38;;;;;;;2.40;1.20;;;11.50;99.90;;;;;;5072258;28;20447;-64
2021/09/23 06:11:10;;;;;;;1.50;1.10;;;11.60;99.90;;;;;;5076911;28;20440;-63
2021/09/23 06:16:49;;;;;;;2.60;1.10;;;11.80;99.90;;;;;;5090099;28;20693;-62
2021/09/23 06:19:20;;;;;;;2.97;1.20;;;12.00;99.90;;;;;;5076064;28;20421;-60
2021/09/23 06:22:00;;;;;;;3.15;1.50;;;12.20;99.90;;;;;;5090791;28;20491;-61
2021/09/23 06:24:33;;;;;;;3.75;1.55;;;12.20;99.90;;;;;;5074116;28;20716;-59
2021/09/23 06:27:13;;;;;;;2.10;1.20;;;12.40;99.90;;;;;;5056954;28;20420;-60
2021/09/23 06:29:44;;;;;;;1.80;1.10;;;12.30;99.90;;;;;;5046230;28;20433;-59
2021/09/23 06:32:30;;;;;;;3.28;1.30;;;12.40;99.90;;;;;;5046564;28;20413;-59
2021/09/23 06:35:05;;;;;;;3.45;1.20;;;12.40;99.90;;;;;;5036849;28;20439;-59
2021/09/23 06:37:43;;;;;;;2.20;1.30;;;12.50;99.90;;;;;;5033004;28;20466;-59
2021/09/23 06:40:42;;;;;;;2.20;1.30;;;12.50;99.90;;;;;;5033475;28;20435;-59
2021/09/23 06:43:14;;;;;;;2.60;1.27;;;12.50;99.90;;;;;;5031761;28;20423;-59
2021/09/23 06:45:56;;;;;;;2.20;1.40;;;12.50;99.90;;;;;;5034493;28;20766;-59
2021/09/23 06:48:39;;;;;;;2.10;1.50;;;12.50;99.90;;;;;;5032321;28;20778;-60
2021/09/23 06:54:13;;;;;;;2.30;1.10;;;13.00;99.90;;;;;;5046354;28;20437;-59
2021/09/23 06:56:41;;;;;;;2.90;1.30;;;13.70;99.90;;;;;;5035320;28;20502;-55
2021/09/23 06:59:12;;;;;;;3.42;1.10;;;14.20;99.90;;;;;;5031728;28;20801;-55
2021/09/23 07:01:48;;;;;;;3.83;1.13;;;14.40;99.90;;;;;;5048255;28;20517;-52
2021/09/23 07:04:26;;;;;;;1.90;1.30;;;14.60;99.90;;;;;;5051078;28;20520;-53
2021/09/23 07:07:03;;;;;;;4.75;2.80;;;14.90;99.90;;;;;;5051225;28;20421;-54
2021/09/23 07:09:51;;;;;;;2.00;1.20;;;15.00;99.90;;;;;;5050081;28;20988;-54
2021/09/23 07:12:45;;;;;;;3.90;1.80;;;15.00;99.90;;;;;;5038164;28;20861;-54
2021/09/23 07:15:23;;;;;;;2.80;1.50;;;14.90;99.90;;;;;;5028940;28;20431;-54
2021/09/23 07:17:58;;;;;;;4.70;2.03;;;14.80;99.90;;;;;;5024374;28;20471;-53
2021/09/23 07:20:59;;;;;;;2.60;1.40;;;14.50;99.90;;;;;;5028569;28;20411;-54
2021/09/23 07:26:46;;;;;;;3.80;1.30;;;14.20;99.90;;;;;;5030524;28;20431;-54
2021/09/23 07:29:38;;;;;;;4.30;1.70;;;14.50;99.90;;;;;;5076367;28;20429;-52
2021/09/23 07:32:31;;;;;;;2.95;1.30;;;14.50;99.90;;;;;;5081300;28;20506;-51
2021/09/23 07:35:04;;;;;;;3.70;2.08;;;14.70;99.90;;;;;;5083032;28;20429;-52
2021/09/23 07:37:39;;;;;;;2.50;1.30;;;14.90;99.90;;;;;;5080176;28;20418;-51
2021/09/23 07:40:27;;;;;;;1.60;1.40;;;15.10;99.90;;;;;;5069705;28;20427;-55
2021/09/23 07:43:02;;;;;;;1.83;1.33;;;15.40;99.90;;;;;;5070514;28;20804;-54
2021/09/23 07:45:57;;;;;;;3.25;1.25;;;15.50;99.90;;;;;;5070525;28;20462;-51
2021/09/23 07:48:36;;;;;;;2.75;1.30;;;15.60;99.90;;;;;;5065435;28;20792;-52
2021/09/23 07:51:16;;;;;;;3.50;1.60;;;15.80;99.90;;;;;;5082596;28;20513;-55
2021/09/23 07:53:59;;;;;;;3.67;2.00;;;15.80;99.90;;;;;;5081823;28;20437;-50
2021/09/23 07:56:29;;;;;;;3.80;1.50;;;15.40;99.90;;;;;;5082272;28;20504;-44
2021/09/23 07:59:02;;;;;;;2.90;1.40;;;15.40;99.90;;;;;;5092659;28;20418;-50
2021/09/23 08:01:35;;;;;;;6.50;1.42;;;15.50;99.90;;;;;;5072356;28;20434;-47
2021/09/23 08:04:22;;;;;;;5.72;1.70;;;15.70;99.90;;;;;;5070981;28;20444;-49
2021/09/23 08:10:02;;;;;;;3.90;1.10;;;16.10;99.90;;;;;;5076599;28;20856;-46
2021/09/23 08:13:02;;;;;;;2.50;1.20;;;16.20;99.90;;;;;;5091161;28;20449;-50
2021/09/23 08:16:00;;;;;;;3.53;1.50;;;16.30;99.90;;;;;;5091288;28;20452;-50
2021/09/23 08:18:37;;;;;;;3.40;1.00;;;16.40;99.90;;;;;;5070136;28;20425;-46
2021/09/23 08:21:22;;;;;;;2.20;1.10;;;16.40;99.90;;;;;;5086935;28;20524;-49
2021/09/23 08:24:02;;;;;;;3.03;1.20;;;16.50;99.90;;;;;;5087230;28;20423;-51
2021/09/23 08:26:35;;;;;;;2.17;1.27;;;16.60;99.90;;;;;;5081380;28;20429;-48
2021/09/23 08:29:10;;;;;;;2.10;1.20;;;16.70;99.90;;;;;;5084742;28;20503;-49
2021/09/23 08:31:47;;;;;;;3.17;1.30;;;16.90;99.90;;;;;;5084260;28;20479;-60
2021/09/23 08:34:24;;;;;;;1.90;1.30;;;16.90;99.90;;;;;;5073267;28;20612;-58
2021/09/23 08:36:57;;;;;;;1.80;1.10;;;16.90;99.90;;;;;;5080157;28;20858;-59
2021/09/23 08:39:38;;;;;;;1.55;1.13;;;16.90;99.90;;;;;;5073285;28;20690;-56
2021/09/23 08:42:15;;;;;;;5.00;1.30;;;17.10;99.90;;;;;;5074068;28;20716;-57
2021/09/23 08:45:11;;;;;;;2.88;1.10;;;17.10;99.90;;;;;;5076490;28;20432;-56
2021/09/23 08:47:55;;;;;;;2.30;1.30;;;17.20;99.90;;;;;;5072727;28;20478;-57
2021/09/23 08:50:53;;;;;;;2.33;1.00;;;17.20;99.90;;;;;;5086426;28;20416;-55
2021/09/23 08:53:35;;;;;;;2.20;1.00;;;17.20;99.90;;;;;;5077574;28;20991;-59
2021/09/23 08:56:33;;;;;;;2.20;0.90;;;17.50;99.90;;;;;;5080786;28;20522;-56
2021/09/23 08:59:21;;;;;;;1.85;0.80;;;17.60;99.90;;;;;;5078290;28;20853;-57
2021/09/23 09:01:57;;;;;;;1.10;0.75;;;17.80;99.90;;;;;;5085845;28;20425;-58
2021/09/23 09:04:45;;;;;;;;;;;;;;;;;;;;;
2021/09/23 09:07:29;;;;;;;1.43;0.60;;;17.90;99.90;;;;;;5091666;28;20750;-57
2021/09/23 09:13:24;;;;;;;0.70;0.50;;;18.10;99.90;;;;;;5072406;28;20408;-57
2021/09/23 09:16:27;;;;;;;0.80;0.50;;;18.10;99.90;;;;;;5078078;28;20432;-58
2021/09/23 09:19:06;;;;;;;0.90;0.60;;;18.10;99.90;;;;;;5091848;28;20422;-59
2021/09/23 09:21:41;;;;;;;1.70;0.60;;;18.20;99.90;;;;;;5092770;28;20463;-56
2021/09/23 09:24:16;;;;;;;1.50;0.60;;;18.30;99.90;;;;;;5093596;28;20422;-58
2021/09/23 09:29:36;;;;;;;1.37;0.60;;;18.70;99.90;;;;;;5090973;28;20421;-57
2021/09/23 09:32:45;;;;;;;0.97;0.60;;;18.80;99.90;;;;;;5094308;28;20853;-56
2021/09/23 09:35:25;;;;;;;0.90;0.40;;;18.70;99.90;;;;;;5093400;28;20426;-56
2021/09/23 09:38:11;;;;;;;1.20;0.50;;;18.50;99.90;;;;;;5093004;28;20434;-54
2021/09/23 09:41:14;;;;;;;1.10;0.50;;;18.60;99.90;;;;;;5091271;28;20817;-56
2021/09/23 09:44:29;;;;;;;6.93;5.20;;;18.90;99.90;;;;;;5083011;28;20925;-56
2021/09/23 09:47:06;;;;;;;25.65;19.42;;;19.10;99.90;;;;;;5082836;28;20866;-56
2021/09/23 09:50:02;;;;;;;1.33;0.80;;;19.20;99.90;;;;;;5086853;28;20433;-54
2021/09/23 09:52:40;;;;;;;0.60;0.40;;;19.40;99.90;;;;;;5075645;28;20796;-56
2021/09/23 09:55:25;;;;;;;0.85;0.50;;;19.60;99.90;;;;;;5078252;28;20626;-57
2021/09/23 09:58:04;;;;;;;0.90;0.50;;;19.70;99.90;;;;;;5085457;28;20529;-55
2021/09/23 10:00:36;;;;;;;0.75;0.40;;;19.90;99.90;;;;;;5075362;28;20439;-57
2021/09/23 10:03:42;;;;;;;1.20;0.50;;;20.10;99.90;;;;;;5069530;28;20459;-55
2021/09/23 10:06:47;;;;;;;1.10;0.60;;;20.20;99.90;;;;;;5074587;28;20525;-57
2021/09/23 10:09:20;;;;;;;1.00;0.50;;;20.60;99.90;;;;;;5077589;28;20446;-58
2021/09/23 10:12:02;;;;;;;0.98;0.50;;;20.90;99.90;;;;;;5086002;28;20441;-56
2021/09/23 10:14:39;;;;;;;2.00;0.70;;;20.70;99.90;;;;;;5083401;28;20422;-58
2021/09/23 10:17:38;;;;;;;1.00;0.60;;;20.90;99.90;;;;;;5086979;28;20921;-58
2021/09/23 10:20:25;;;;;;;0.70;0.40;;;21.10;99.90;;;;;;5085934;28;20460;-58
2021/09/23 10:23:05;;;;;;;0.73;0.50;;;21.00;99.90;;;;;;5073642;28;20470;-56
2021/09/23 10:25:49;;;;;;;0.70;0.43;;;20.90;99.90;;;;;;5073202;28;20449;-56
2021/09/23 10:28:30;;;;;;;0.88;0.60;;;21.00;99.90;;;;;;5070755;28;20453;-58
2021/09/23 10:31:11;;;;;;;0.98;0.52;;;21.00;99.90;;;;;;5069066;28;20459;-58
2021/09/23 10:36:42;;;;;;;1.50;0.50;;;21.30;99.90;;;;;;5090372;28;20792;-58
2021/09/23 10:39:16;;;;;;;0.75;0.52;;;21.60;99.90;;;;;;5089079;28;20425;-55
2021/09/23 10:41:49;;;;;;;2.40;0.50;;;21.90;99.90;;;;;;5087127;28;20824;-58
2021/09/23 10:47:14;;;;;;;0.70;0.50;;;22.60;99.90;;;;;;5083901;28;20785;-58
2021/09/23 10:49:48;;;;;;;0.80;0.50;;;22.70;99.90;;;;;;5091358;28;20871;-58
2021/09/23 10:52:25;;;;;;;1.10;0.50;;;22.90;99.90;;;;;;5072100;28;20725;-59
2021/09/23 10:54:58;;;;;;;0.80;0.47;;;23.10;99.90;;;;;;5076368;28;20445;-58
2021/09/23 10:57:34;;;;;;;0.80;0.50;;;23.30;99.90;;;;;;5074987;28;20775;-58
2021/09/23 11:00:08;;;;;;;1.83;0.50;;;23.10;99.90;;;;;;5090630;28;20505;-58
2021/09/23 11:02:49;;;;;;;0.80;0.50;;;23.30;99.90;;;;;;5091214;28;20440;-58
2021/09/23 11:05:36;;;;;;;0.70;0.40;;;23.40;99.90;;;;;;5090706;28;20784;-58
2021/09/23 11:08:19;;;;;;;1.50;0.50;;;23.50;99.90;;;;;;5077448;28;20478;-58
2021/09/23 11:11:00;;;;;;;4.10;0.80;;;23.70;99.90;;;;;;5077520;28;20429;-57
2021/09/23 11:13:35;;;;;;;1.20;0.50;;;24.00;99.90;;;;;;5088670;28;20864;-58
2021/09/23 11:18:56;;;;;;;0.68;0.40;;;24.20;99.90;;;;;;5067528;28;20415;-58
2021/09/23 11:21:26;;;;;;;1.50;0.60;;;23.80;99.90;;;;;;5066253;28;20431;-58
2021/09/23 11:24:16;;;;;;;1.25;0.50;;;23.90;99.90;;;;;;5069522;28;20435;-57
2021/09/23 11:30:08;;;;;;;0.70;0.50;;;24.00;99.90;;;;;;5061964;28;20591;-57
2021/09/23 11:32:55;;;;;;;0.93;0.50;;;23.80;99.90;;;;;;5069074;28;20780;-56
2021/09/23 11:35:34;;;;;;;1.20;0.40;;;24.00;99.90;;;;;;5069605;28;20838;-58
2021/09/23 11:38:07;;;;;;;0.80;0.50;;;24.30;99.90;;;;;;5069793;28;20804;-58
2021/09/23 11:40:44;;;;;;;0.70;0.40;;;24.60;99.90;;;;;;5069701;28;20431;-59
2021/09/23 11:43:17;;;;;;;0.55;0.40;;;24.50;99.90;;;;;;5069535;28;20423;-57
2021/09/23 11:46:27;;;;;;;0.70;0.40;;;24.20;99.90;;;;;;5066543;28;20496;-58
2021/09/23 11:49:06;;;;;;;0.70;0.40;;;24.20;99.90;;;;;;5064801;28;20434;-63
2021/09/23 11:51:35;;;;;;;0.70;0.43;;;24.10;99.90;;;;;;5067300;28;20420;-58
2021/09/23 11:54:11;;;;;;;0.60;0.50;;;24.10;99.90;;;;;;5064627;28;20435;-58
2021/09/23 11:59:31;;;;;;;0.65;0.40;;;24.30;98.90;;;;;;5062009;28;20501;-57
2021/09/23 12:02:23;;;;;;;0.70;0.40;;;24.10;98.60;;;;;;5070681;28;20442;-59
2021/09/23 12:05:00;;;;;;;0.70;0.40;;;24.20;96.80;;;;;;5068017;28;20735;-60
2021/09/23 12:07:43;;;;;;;1.27;0.40;;;23.60;96.70;;;;;;5065897;28;20930;-59
2021/09/23 12:10:21;;;;;;;0.90;0.50;;;23.70;98.00;;;;;;5072237;28;20437;-59
2021/09/23 12:13:09;;;;;;;0.77;0.50;;;23.60;97.30;;;;;;5086226;28;20464;-60
2021/09/23 12:15:50;;;;;;;0.63;0.40;;;23.60;98.40;;;;;;5084830;28;20882;-60
2021/09/23 12:18:27;;;;;;;1.20;0.50;;;23.60;97.60;;;;;;5087588;28;20425;-60
2021/09/23 12:21:01;;;;;;;0.70;0.40;;;23.60;95.90;;;;;;5087504;28;20469;-59
2021/09/23 12:23:39;;;;;;;1.20;0.50;;;23.60;98.30;;;;;;5087909;28;20448;-60
2021/09/23 12:26:16;;;;;;;0.80;0.40;;;23.70;98.00;;;;;;5091017;28;20505;-60
2021/09/23 12:28:54;;;;;;;0.70;0.50;;;23.90;98.00;;;;;;5089778;28;20464;-59
2021/09/23 12:31:35;;;;;;;1.30;0.50;;;23.80;94.10;;;;;;5091551;28;20421;-60
2021/09/23 12:34:17;;;;;;;1.60;0.47;;;23.70;95.20;;;;;;5089594;28;20834;-60
2021/09/23 12:36:50;;;;;;;0.60;0.40;;;23.60;96.70;;;;;;5088471;28;20428;-60
2021/09/23 12:39:23;;;;;;;0.73;0.40;;;23.80;96.40;;;;;;5088066;28;20811;-60
2021/09/23 12:42:14;;;;;;;0.60;0.40;;;23.80;97.60;;;;;;5080498;28;20826;-60
2021/09/23 12:44:58;;;;;;;0.82;0.40;;;23.80;97.40;;;;;;5082336;28;20509;-59
2021/09/23 12:47:28;;;;;;;0.70;0.43;;;23.90;97.20;;;;;;5074709;28;20525;-58
2021/09/23 12:50:08;;;;;;;0.95;0.50;;;23.90;97.90;;;;;;5071342;28;20423;-59
2021/09/23 12:52:46;;;;;;;0.70;0.50;;;23.90;98.10;;;;;;5068827;28;20458;-59
2021/09/23 12:55:19;;;;;;;1.50;0.50;;;23.80;97.80;;;;;;5079179;28;20530;-58
2021/09/23 12:57:53;;;;;;;0.70;0.50;;;23.70;98.00;;;;;;5078466;28;20881;-59
2021/09/23 13:00:30;;;;;;;0.75;0.50;;;23.90;98.80;;;;;;5078534;28;20431;-58
2021/09/23 13:03:05;;;;;;;0.70;0.50;;;24.10;98.60;;;;;;5080597;28;21814;-58
2021/09/23 13:05:38;;;;;;;1.30;0.60;;;23.90;99.30;;;;;;5069794;28;21046;-59
2021/09/23 13:08:17;;;;;;;0.90;0.60;;;24.00;99.90;;;;;;5082947;28;20810;-60
2021/09/23 13:10:46;;;;;;;1.50;0.50;;;24.20;99.90;;;;;;5081426;28;20890;-59
2021/09/23 13:13:14;;;;;;;0.80;0.50;;;24.20;99.90;;;;;;5093682;28;20471;-59
2021/09/23 13:15:48;;;;;;;0.80;0.50;;;24.20;99.90;;;;;;5093158;28;20425;-58
2021/09/23 13:18:23;;;;;;;0.80;0.50;;;24.10;99.90;;;;;;5093658;28;20468;-59
2021/09/23 13:20:57;;;;;;;1.83;1.00;;;23.90;99.90;;;;;;5092190;28;20469;-59
2021/09/23 13:23:33;;;;;;;1.02;0.52;;;23.70;99.90;;;;;;5079242;28;20439;-58
2021/09/23 13:26:03;;;;;;;1.10;0.50;;;23.80;99.90;;;;;;5071059;28;20411;-59
2021/09/23 13:28:40;;;;;;;0.70;0.40;;;23.70;99.90;;;;;;5071474;28;20701;-59
2021/09/23 13:31:10;;;;;;;1.27;0.50;;;23.70;99.90;;;;;;5072211;28;20492;-60
2021/09/23 13:33:41;;;;;;;0.70;0.50;;;23.60;99.90;;;;;;5070585;28;20419;-59
2021/09/23 13:36:13;;;;;;;0.80;0.50;;;23.50;99.90;;;;;;5069987;28;20464;-59
2021/09/23 13:38:43;;;;;;;1.20;0.73;;;23.40;99.90;;;;;;5069054;28;20475;-58
2021/09/23 13:41:12;;;;;;;0.70;0.50;;;23.40;99.90;;;;;;5068329;28;20522;-59
2021/09/23 13:43:45;;;;;;;1.00;0.60;;;23.20;99.90;;;;;;5066303;28;20506;-59
2021/09/23 13:46:14;;;;;;;1.20;0.60;;;23.20;99.90;;;;;;5076064;28;20456;-59
2021/09/23 13:48:43;;;;;;;0.80;0.50;;;23.10;99.90;;;;;;5077344;28;20732;-59
2021/09/23 13:51:14;;;;;;;0.88;0.45;;;23.10;99.90;;;;;;5080235;28;20998;-58
2021/09/23 13:53:41;;;;;;;1.00;0.50;;;23.20;99.90;;;;;;5088301;28;20422;-58
2021/09/23 13:56:09;;;;;;;0.82;0.50;;;23.10;99.90;;;;;;5091999;28;20867;-57
2021/09/23 13:58:39;;;;;;;0.80;0.52;;;23.10;99.90;;;;;;5088118;28;20425;-59
2021/09/23 14:01:10;;;;;;;1.35;0.60;;;23.00;99.90;;;;;;5088986;28;20430;-59
2021/09/23 14:03:37;;;;;;;1.10;0.50;;;22.90;99.90;;;;;;5090341;28;20752;-58